Waterford, Pennsylvania
Current Conditions -  °F | °C
As of 11:51 AM on Saturday 20 Dec 2014 (Local Time) from KERI Reporting Station
Overcast Overcast  
Wind Chill: 25°   Ceiling: 2100
Heat Index: 30°   Visibility: 10mi
Dew Point: 21°   Wind: 5mph
Humidity: 69%   Direction: 80°E
Pressure: 30.28"   Gusts: NA
Location:  41.94°N, 79.98°W
Report Text: KERI 201651Z 08004KT 10SM OVC021 M01/M06 A3028 RMK AO2 SLP263 T10111061
Loading
Personal Weather Stations






























Interactive Weather Map New forecast layout! Learn more

10-Day Weather Forecast

Advertisements
Track Severe Weather on mobile